sensor_id;sensor_type;location;lat;lon;timestamp;pressure;altitude;pressure_sealevel;temperature;humidity
76726;BME280;65651;53.154;17.916;2023-07-13T00:01:15;100595.14;;;15.87;81.82
76726;BME280;65651;53.154;17.916;2023-07-13T00:03:43;100586.84;;;15.82;81.90
76726;BME280;65651;53.154;17.916;2023-07-13T00:06:10;100584.88;;;15.78;81.84
76726;BME280;65651;53.154;17.916;2023-07-13T00:08:38;100582.56;;;15.75;81.90
76726;BME280;65651;53.154;17.916;2023-07-13T00:11:06;100585.60;;;15.72;81.96
76726;BME280;65651;53.154;17.916;2023-07-13T00:13:34;100597.45;;;15.70;82.05
76726;BME280;65651;53.154;17.916;2023-07-13T00:16:02;100597.63;;;15.67;82.01
76726;BME280;65651;53.154;17.916;2023-07-13T00:18:29;100600.11;;;15.65;82.11
76726;BME280;65651;53.154;17.916;2023-07-13T00:20:57;100598.20;;;15.64;82.20
76726;BME280;65651;53.154;17.916;2023-07-13T00:23:34;100601.42;;;15.62;82.24
76726;BME280;65651;53.154;17.916;2023-07-13T00:26:03;100607.98;;;15.60;82.23
76726;BME280;65651;53.154;17.916;2023-07-13T00:28:35;100606.84;;;15.57;82.37
76726;BME280;65651;53.154;17.916;2023-07-13T00:31:03;100607.87;;;15.55;82.26
76726;BME280;65651;53.154;17.916;2023-07-13T00:33:31;100610.23;;;15.52;82.46
76726;BME280;65651;53.154;17.916;2023-07-13T00:36:11;100618.19;;;15.49;82.32
76726;BME280;65651;53.154;17.916;2023-07-13T00:38:40;100618.95;;;15.45;82.40
76726;BME280;65651;53.154;17.916;2023-07-13T00:41:10;100623.91;;;15.43;82.46
76726;BME280;65651;53.154;17.916;2023-07-13T00:43:38;100625.05;;;15.41;82.52
76726;BME280;65651;53.154;17.916;2023-07-13T00:46:32;100629.72;;;15.40;82.53
76726;BME280;65651;53.154;17.916;2023-07-13T00:49:04;100629.70;;;15.38;82.59
76726;BME280;65651;53.154;17.916;2023-07-13T00:51:50;100635.98;;;15.38;82.64
76726;BME280;65651;53.154;17.916;2023-07-13T00:54:34;100641.48;;;15.37;82.68
76726;BME280;65651;53.154;17.916;2023-07-13T00:57:10;100647.71;;;15.38;82.81
76726;BME280;65651;53.154;17.916;2023-07-13T00:59:44;100652.61;;;15.41;82.74
76726;BME280;65651;53.154;17.916;2023-07-13T01:02:14;100655.73;;;15.43;82.80
76726;BME280;65651;53.154;17.916;2023-07-13T01:04:41;100661.02;;;15.49;82.87
76726;BME280;65651;53.154;17.916;2023-07-13T01:07:15;100657.40;;;15.55;82.90
76726;BME280;65651;53.154;17.916;2023-07-13T01:09:45;100648.71;;;15.60;83.02
76726;BME280;65651;53.154;17.916;2023-07-13T01:12:13;100652.76;;;15.64;83.02
76726;BME280;65651;53.154;17.916;2023-07-13T01:14:41;100647.91;;;15.67;83.02
76726;BME280;65651;53.154;17.916;2023-07-13T01:17:10;100644.66;;;15.69;83.03
76726;BME280;65651;53.154;17.916;2023-07-13T01:19:42;100639.13;;;15.70;83.05
76726;BME280;65651;53.154;17.916;2023-07-13T01:22:16;100634.45;;;15.69;83.08
76726;BME280;65651;53.154;17.916;2023-07-13T01:24:47;100633.73;;;15.69;83.12
76726;BME280;65651;53.154;17.916;2023-07-13T01:27:21;100632.86;;;15.69;83.13
76726;BME280;65651;53.154;17.916;2023-07-13T01:29:53;100638.43;;;15.68;83.24
76726;BME280;65651;53.154;17.916;2023-07-13T01:32:29;100643.40;;;15.67;83.24
76726;BME280;65651;53.154;17.916;2023-07-13T01:34:59;100640.96;;;15.66;83.26
76726;BME280;65651;53.154;17.916;2023-07-13T01:37:27;100643.60;;;15.66;83.24
76726;BME280;65651;53.154;17.916;2023-07-13T01:39:55;100646.59;;;15.65;83.32
76726;BME280;65651;53.154;17.916;2023-07-13T01:42:23;100645.58;;;15.62;83.36
76726;BME280;65651;53.154;17.916;2023-07-13T01:44:50;100648.12;;;15.61;83.33
76726;BME280;65651;53.154;17.916;2023-07-13T01:47:18;100654.30;;;15.59;83.41
76726;BME280;65651;53.154;17.916;2023-07-13T01:49:46;100660.01;;;15.56;83.48
76726;BME280;65651;53.154;17.916;2023-07-13T01:52:15;100668.23;;;15.54;83.43
76726;BME280;65651;53.154;17.916;2023-07-13T01:54:46;100665.08;;;15.51;83.48
76726;BME280;65651;53.154;17.916;2023-07-13T01:57:37;100660.75;;;15.50;83.52
76726;BME280;65651;53.154;17.916;2023-07-13T02:00:10;100661.49;;;15.50;83.59
76726;BME280;65651;53.154;17.916;2023-07-13T02:02:47;100656.52;;;15.49;83.50
76726;BME280;65651;53.154;17.916;2023-07-13T02:05:19;100648.83;;;15.48;83.55
76726;BME280;65651;53.154;17.916;2023-07-13T02:07:48;100647.98;;;15.48;83.53
76726;BME280;65651;53.154;17.916;2023-07-13T02:10:22;100648.35;;;15.48;83.53
76726;BME280;65651;53.154;17.916;2023-07-13T02:12:50;100652.64;;;15.50;83.80
76726;BME280;65651;53.154;17.916;2023-07-13T02:15:21;100648.92;;;15.49;83.70
76726;BME280;65651;53.154;17.916;2023-07-13T02:17:49;100644.27;;;15.50;83.69
76726;BME280;65651;53.154;17.916;2023-07-13T02:20:17;100636.23;;;15.49;83.74
76726;BME280;65651;53.154;17.916;2023-07-13T02:22:48;100636.80;;;15.50;83.78
76726;BME280;65651;53.154;17.916;2023-07-13T02:25:20;100631.33;;;15.51;83.73
76726;BME280;65651;53.154;17.916;2023-07-13T02:27:50;100628.88;;;15.52;83.72
76726;BME280;65651;53.154;17.916;2023-07-13T02:30:18;100625.97;;;15.52;83.84
76726;BME280;65651;53.154;17.916;2023-07-13T02:32:45;100629.59;;;15.52;83.79
76726;BME280;65651;53.154;17.916;2023-07-13T02:35:13;100633.16;;;15.50;83.82
76726;BME280;65651;53.154;17.916;2023-07-13T02:37:41;100635.09;;;15.51;83.82
76726;BME280;65651;53.154;17.916;2023-07-13T02:40:09;100636.65;;;15.50;83.81
76726;BME280;65651;53.154;17.916;2023-07-13T02:42:38;100642.73;;;15.49;83.76
76726;BME280;65651;53.154;17.916;2023-07-13T02:45:07;100647.77;;;15.48;83.92
76726;BME280;65651;53.154;17.916;2023-07-13T02:47:36;100639.70;;;15.47;83.82
76726;BME280;65651;53.154;17.916;2023-07-13T02:50:04;100633.37;;;15.48;83.70
76726;BME280;65651;53.154;17.916;2023-07-13T02:52:32;100631.40;;;15.47;83.75
76726;BME280;65651;53.154;17.916;2023-07-13T02:55:00;100629.05;;;15.46;83.77
76726;BME280;65651;53.154;17.916;2023-07-13T02:57:27;100631.54;;;15.44;83.76
76726;BME280;65651;53.154;17.916;2023-07-13T02:59:58;100633.75;;;15.43;83.73
76726;BME280;65651;53.154;17.916;2023-07-13T03:02:26;100629.39;;;15.41;83.77
76726;BME280;65651;53.154;17.916;2023-07-13T03:04:56;100630.22;;;15.40;83.82
76726;BME280;65651;53.154;17.916;2023-07-13T03:07:24;100633.18;;;15.40;83.79
76726;BME280;65651;53.154;17.916;2023-07-13T03:09:57;100634.95;;;15.39;83.81
76726;BME280;65651;53.154;17.916;2023-07-13T03:12:26;100628.92;;;15.38;83.70
76726;BME280;65651;53.154;17.916;2023-07-13T03:14:54;100625.58;;;15.37;83.73
76726;BME280;65651;53.154;17.916;2023-07-13T03:17:23;100631.58;;;15.36;83.74
76726;BME280;65651;53.154;17.916;2023-07-13T03:19:50;100636.77;;;15.35;83.70
76726;BME280;65651;53.154;17.916;2023-07-13T03:22:19;100634.83;;;15.36;83.65
76726;BME280;65651;53.154;17.916;2023-07-13T03:24:47;100637.78;;;15.38;83.66
76726;BME280;65651;53.154;17.916;2023-07-13T03:27:17;100641.75;;;15.39;83.63
76726;BME280;65651;53.154;17.916;2023-07-13T03:29:46;100646.45;;;15.41;83.64
76726;BME280;65651;53.154;17.916;2023-07-13T03:32:17;100648.08;;;15.45;83.61
76726;BME280;65651;53.154;17.916;2023-07-13T03:34:44;100650.09;;;15.51;83.63
76726;BME280;65651;53.154;17.916;2023-07-13T03:37:13;100650.33;;;15.59;83.58
76726;BME280;65651;53.154;17.916;2023-07-13T03:39:40;100651.44;;;15.66;83.53
76726;BME280;65651;53.154;17.916;2023-07-13T03:42:12;100648.47;;;15.75;83.44
76726;BME280;65651;53.154;17.916;2023-07-13T03:45:02;100655.52;;;15.82;83.45
76726;BME280;65651;53.154;17.916;2023-07-13T03:47:31;100652.58;;;15.89;83.51
76726;BME280;65651;53.154;17.916;2023-07-13T03:50:00;100653.75;;;15.93;83.41
76726;BME280;65651;53.154;17.916;2023-07-13T03:52:27;100658.83;;;15.95;83.34
76726;BME280;65651;53.154;17.916;2023-07-13T03:54:58;100655.27;;;15.94;83.32
76726;BME280;65651;53.154;17.916;2023-07-13T03:57:26;100664.80;;;15.95;83.27
76726;BME280;65651;53.154;17.916;2023-07-13T03:59:53;100667.47;;;15.98;83.19
76726;BME280;65651;53.154;17.916;2023-07-13T04:02:20;100665.26;;;16.03;83.19
76726;BME280;65651;53.154;17.916;2023-07-13T04:04:48;100675.08;;;16.12;83.17
76726;BME280;65651;53.154;17.916;2023-07-13T04:07:15;100672.61;;;16.25;83.00
76726;BME280;65651;53.154;17.916;2023-07-13T04:09:43;100676.44;;;16.46;82.80
76726;BME280;65651;53.154;17.916;2023-07-13T04:12:11;100674.36;;;16.85;82.64
76726;BME280;65651;53.154;17.916;2023-07-13T04:14:38;100673.90;;;17.15;82.38
76726;BME280;65651;53.154;17.916;2023-07-13T04:17:06;100673.39;;;18.14;81.37
76726;BME280;65651;53.154;17.916;2023-07-13T04:19:33;100665.13;;;19.88;79.87
76726;BME280;65651;53.154;17.916;2023-07-13T04:22:01;100654.36;;;21.62;78.22
76726;BME280;65651;53.154;17.916;2023-07-13T04:24:28;100649.61;;;23.24;76.53
76726;BME280;65651;53.154;17.916;2023-07-13T04:26:55;100647.65;;;24.77;74.83
76726;BME280;65651;53.154;17.916;2023-07-13T04:29:26;100652.93;;;25.66;73.38
76726;BME280;65651;53.154;17.916;2023-07-13T04:31:53;100660.98;;;26.37;72.17
76726;BME280;65651;53.154;17.916;2023-07-13T04:34:20;100669.02;;;27.13;70.86
76726;BME280;65651;53.154;17.916;2023-07-13T04:36:48;100668.02;;;26.44;70.66
76726;BME280;65651;53.154;17.916;2023-07-13T04:39:16;100675.73;;;25.64;70.15
76726;BME280;65651;53.154;17.916;2023-07-13T04:41:44;100674.80;;;24.94;69.69
76726;BME280;65651;53.154;17.916;2023-07-13T04:44:11;100679.11;;;24.73;69.02
76726;BME280;65651;53.154;17.916;2023-07-13T04:46:38;100685.77;;;24.85;68.40
76726;BME280;65651;53.154;17.916;2023-07-13T04:49:05;100699.83;;;24.39;68.02
76726;BME280;65651;53.154;17.916;2023-07-13T04:51:33;100701.45;;;23.98;67.90
76726;BME280;65651;53.154;17.916;2023-07-13T04:54:00;100706.85;;;24.20;67.23
76726;BME280;65651;53.154;17.916;2023-07-13T04:56:27;100707.95;;;24.44;66.54
76726;BME280;65651;53.154;17.916;2023-07-13T04:58:55;100705.20;;;25.79;65.05
76726;BME280;65651;53.154;17.916;2023-07-13T05:01:22;100710.44;;;27.61;63.32
76726;BME280;65651;53.154;17.916;2023-07-13T05:03:49;100714.60;;;28.88;61.05
76726;BME280;65651;53.154;17.916;2023-07-13T05:06:17;100712.32;;;29.30;58.98
76726;BME280;65651;53.154;17.916;2023-07-13T05:08:44;100720.98;;;28.38;58.58
76726;BME280;65651;53.154;17.916;2023-07-13T05:11:11;100712.30;;;27.57;58.10
76726;BME280;65651;53.154;17.916;2023-07-13T05:13:42;100711.45;;;27.77;57.17
76726;BME280;65651;53.154;17.916;2023-07-13T05:16:10;100709.08;;;27.12;56.83
76726;BME280;65651;53.154;17.916;2023-07-13T05:18:38;100709.30;;;27.57;55.86
76726;BME280;65651;53.154;17.916;2023-07-13T05:21:08;100704.80;;;29.32;54.29
76726;BME280;65651;53.154;17.916;2023-07-13T05:23:36;100697.36;;;31.11;52.35
76726;BME280;65651;53.154;17.916;2023-07-13T05:26:05;100703.35;;;32.74;50.32
76726;BME280;65651;53.154;17.916;2023-07-13T05:28:32;100706.03;;;34.19;48.12
76726;BME280;65651;53.154;17.916;2023-07-13T05:31:00;100703.77;;;35.66;45.12
76726;BME280;65651;53.154;17.916;2023-07-13T05:33:28;100708.63;;;36.89;42.26
76726;BME280;65651;53.154;17.916;2023-07-13T05:35:56;100714.53;;;37.21;39.76
76726;BME280;65651;53.154;17.916;2023-07-13T05:38:24;100719.20;;;36.24;38.61
76726;BME280;65651;53.154;17.916;2023-07-13T05:40:55;100721.27;;;35.01;37.93
76726;BME280;65651;53.154;17.916;2023-07-13T05:43:23;100720.67;;;34.92;36.86
76726;BME280;65651;53.154;17.916;2023-07-13T05:45:55;100712.82;;;34.50;35.89
76726;BME280;65651;53.154;17.916;2023-07-13T05:48:28;100703.71;;;35.16;34.80
76726;BME280;65651;53.154;17.916;2023-07-13T05:50:56;100696.91;;;36.44;33.47
76726;BME280;65651;53.154;17.916;2023-07-13T05:53:24;100705.42;;;37.54;32.05
76726;BME280;65651;53.154;17.916;2023-07-13T05:55:55;100709.27;;;37.10;31.00
76726;BME280;65651;53.154;17.916;2023-07-13T05:58:22;100705.13;;;36.43;30.94
76726;BME280;65651;53.154;17.916;2023-07-13T06:00:59;100709.26;;;35.86;30.90
76726;BME280;65651;53.154;17.916;2023-07-13T06:03:27;100710.88;;;36.34;30.70
76726;BME280;65651;53.154;17.916;2023-07-13T06:05:55;100713.17;;;37.62;29.87
76726;BME280;65651;53.154;17.916;2023-07-13T06:08:23;100709.03;;;38.12;28.71
76726;BME280;65651;53.154;17.916;2023-07-13T06:10:50;100708.44;;;38.67;28.06
76726;BME280;65651;53.154;17.916;2023-07-13T06:13:18;100710.05;;;39.34;26.97
76726;BME280;65651;53.154;17.916;2023-07-13T06:15:49;100705.02;;;39.50;26.79
76726;BME280;65651;53.154;17.916;2023-07-13T06:18:20;100703.42;;;40.41;26.01
76726;BME280;65651;53.154;17.916;2023-07-13T06:20:48;100706.25;;;40.73;25.02
76726;BME280;65651;53.154;17.916;2023-07-13T06:23:16;100706.14;;;40.99;24.83
76726;BME280;65651;53.154;17.916;2023-07-13T06:25:44;100713.46;;;41.58;24.32
76726;BME280;65651;53.154;17.916;2023-07-13T06:28:11;100712.48;;;42.04;23.58
76726;BME280;65651;53.154;17.916;2023-07-13T06:30:38;100714.42;;;42.51;23.28
76726;BME280;65651;53.154;17.916;2023-07-13T06:33:06;100708.23;;;42.94;22.69
76726;BME280;65651;53.154;17.916;2023-07-13T06:35:37;100707.16;;;43.60;22.15
76726;BME280;65651;53.154;17.916;2023-07-13T06:38:05;100707.95;;;43.41;21.63
76726;BME280;65651;53.154;17.916;2023-07-13T06:40:35;100709.82;;;43.38;20.95
76726;BME280;65651;53.154;17.916;2023-07-13T06:43:03;100707.82;;;42.97;20.99
76726;BME280;65651;53.154;17.916;2023-07-13T06:45:36;100701.72;;;42.65;20.92
76726;BME280;65651;53.154;17.916;2023-07-13T06:48:07;100702.30;;;41.31;21.79
76726;BME280;65651;53.154;17.916;2023-07-13T06:50:35;100709.28;;;39.39;22.67
76726;BME280;65651;53.154;17.916;2023-07-13T06:53:03;100709.30;;;38.26;23.55
76726;BME280;65651;53.154;17.916;2023-07-13T06:55:33;100720.20;;;37.19;24.26
76726;BME280;65651;53.154;17.916;2023-07-13T06:58:03;100721.47;;;36.17;24.76
76726;BME280;65651;53.154;17.916;2023-07-13T07:00:32;100722.52;;;35.23;25.86
76726;BME280;65651;53.154;17.916;2023-07-13T07:03:03;100721.45;;;34.49;26.40
76726;BME280;65651;53.154;17.916;2023-07-13T07:05:30;100720.02;;;33.80;26.91
76726;BME280;65651;53.154;17.916;2023-07-13T07:07:58;100719.98;;;33.14;27.76
76726;BME280;65651;53.154;17.916;2023-07-13T07:10:26;100722.74;;;32.57;28.28
76726;BME280;65651;53.154;17.916;2023-07-13T07:12:56;100722.49;;;32.11;28.93
76726;BME280;65651;53.154;17.916;2023-07-13T07:15:23;100725.65;;;31.72;29.75
76726;BME280;65651;53.154;17.916;2023-07-13T07:17:50;100729.45;;;31.49;30.51
76726;BME280;65651;53.154;17.916;2023-07-13T07:20:18;100734.56;;;31.25;30.89
76726;BME280;65651;53.154;17.916;2023-07-13T07:22:49;100731.28;;;31.07;31.60
76726;BME280;65651;53.154;17.916;2023-07-13T07:25:17;100733.35;;;33.07;30.63
76726;BME280;65651;53.154;17.916;2023-07-13T07:27:45;100739.83;;;34.89;29.37
76726;BME280;65651;53.154;17.916;2023-07-13T07:30:14;100733.98;;;35.58;28.59
76726;BME280;65651;53.154;17.916;2023-07-13T07:32:42;100729.31;;;35.42;28.16
76726;BME280;65651;53.154;17.916;2023-07-13T07:35:12;100729.05;;;35.16;28.00
76726;BME280;65651;53.154;17.916;2023-07-13T07:37:40;100719.83;;;35.53;28.03
76726;BME280;65651;53.154;17.916;2023-07-13T07:40:08;100724.33;;;37.93;26.28
76726;BME280;65651;53.154;17.916;2023-07-13T07:42:37;100722.40;;;39.09;25.45
76726;BME280;65651;53.154;17.916;2023-07-13T07:45:07;100721.55;;;40.11;24.02
76726;BME280;65651;53.154;17.916;2023-07-13T07:47:35;100721.21;;;40.59;23.24
76726;BME280;65651;53.154;17.916;2023-07-13T07:50:05;100723.33;;;41.25;22.46
76726;BME280;65651;53.154;17.916;2023-07-13T07:52:33;100725.15;;;41.45;21.99
76726;BME280;65651;53.154;17.916;2023-07-13T07:55:01;100721.30;;;42.57;21.33
76726;BME280;65651;53.154;17.916;2023-07-13T07:57:28;100719.85;;;42.74;20.27
76726;BME280;65651;53.154;17.916;2023-07-13T07:59:55;100719.96;;;41.31;20.33
76726;BME280;65651;53.154;17.916;2023-07-13T08:02:24;100725.07;;;41.78;19.88
76726;BME280;65651;53.154;17.916;2023-07-13T08:04:52;100725.08;;;41.55;19.77
76726;BME280;65651;53.154;17.916;2023-07-13T08:07:22;100724.41;;;41.15;19.88
76726;BME280;65651;53.154;17.916;2023-07-13T08:09:54;100724.66;;;42.06;19.56
76726;BME280;65651;53.154;17.916;2023-07-13T08:12:22;100720.14;;;42.72;18.89
76726;BME280;65651;53.154;17.916;2023-07-13T08:14:50;100723.59;;;42.38;18.52
76726;BME280;65651;53.154;17.916;2023-07-13T08:17:26;100719.70;;;41.94;18.69
76726;BME280;65651;53.154;17.916;2023-07-13T08:19:54;100725.39;;;41.96;18.37
76726;BME280;65651;53.154;17.916;2023-07-13T08:22:22;100720.56;;;42.09;18.34
76726;BME280;65651;53.154;17.916;2023-07-13T08:24:50;100722.93;;;41.82;18.71
76726;BME280;65651;53.154;17.916;2023-07-13T08:27:24;100719.77;;;41.67;18.80
76726;BME280;65651;53.154;17.916;2023-07-13T08:29:55;100714.46;;;41.19;19.10
76726;BME280;65651;53.154;17.916;2023-07-13T08:32:23;100705.22;;;39.71;19.87
76726;BME280;65651;53.154;17.916;2023-07-13T08:34:51;100703.08;;;39.49;20.07
76726;BME280;65651;53.154;17.916;2023-07-13T08:37:19;100700.38;;;39.56;20.37
76726;BME280;65651;53.154;17.916;2023-07-13T08:39:46;100696.92;;;40.12;20.05
76726;BME280;65651;53.154;17.916;2023-07-13T08:42:44;100699.35;;;40.68;20.23
76726;BME280;65651;53.154;17.916;2023-07-13T08:45:21;100705.74;;;40.33;20.03
76726;BME280;65651;53.154;17.916;2023-07-13T08:48:04;100712.19;;;38.26;20.53
76726;BME280;65651;53.154;17.916;2023-07-13T08:50:49;100716.17;;;36.30;21.73
76726;BME280;65651;53.154;17.916;2023-07-13T08:53:19;100714.86;;;36.63;22.17
76726;BME280;65651;53.154;17.916;2023-07-13T08:55:56;100714.02;;;36.42;22.81
76726;BME280;65651;53.154;17.916;2023-07-13T08:58:25;100713.38;;;35.30;23.42
76726;BME280;65651;53.154;17.916;2023-07-13T09:01:19;100718.23;;;34.36;24.53
76726;BME280;65651;53.154;17.916;2023-07-13T09:12:26;100718.99;;;33.13;26.40
76726;BME280;65651;53.154;17.916;2023-07-13T09:15:02;100716.55;;;33.07;26.77
76726;BME280;65651;53.154;17.916;2023-07-13T09:17:47;100707.84;;;34.22;25.79
76726;BME280;65651;53.154;17.916;2023-07-13T09:20:36;100703.41;;;35.92;24.82
76726;BME280;65651;53.154;17.916;2023-07-13T09:23:09;100709.36;;;35.60;24.42
76726;BME280;65651;53.154;17.916;2023-07-13T09:25:43;100711.15;;;34.09;24.69
76726;BME280;65651;53.154;17.916;2023-07-13T09:28:18;100717.96;;;33.01;25.68
76726;BME280;65651;53.154;17.916;2023-07-13T09:31:07;100713.48;;;32.22;26.12
76726;BME280;65651;53.154;17.916;2023-07-13T09:33:40;100705.52;;;31.66;26.96
76726;BME280;65651;53.154;17.916;2023-07-13T09:47:25;100708.70;;;34.37;25.78
76726;BME280;65651;53.154;17.916;2023-07-13T09:50:06;100708.73;;;33.51;25.74
76726;BME280;65651;53.154;17.916;2023-07-13T09:52:44;100705.66;;;32.97;25.94
76726;BME280;65651;53.154;17.916;2023-07-13T09:55:35;100702.66;;;33.88;25.44
76726;BME280;65651;53.154;17.916;2023-07-13T09:58:18;100700.20;;;33.84;25.12
76726;BME280;65651;53.154;17.916;2023-07-13T10:00:59;100700.23;;;33.27;25.14
76726;BME280;65651;53.154;17.916;2023-07-13T10:03:32;100691.27;;;34.08;24.47
76726;BME280;65651;53.154;17.916;2023-07-13T10:06:17;100693.19;;;35.34;23.69
76726;BME280;65651;53.154;17.916;2023-07-13T10:08:45;100692.73;;;35.85;22.97
76726;BME280;65651;53.154;17.916;2023-07-13T10:11:24;100695.15;;;34.73;22.97
76726;BME280;65651;53.154;17.916;2023-07-13T10:13:58;100704.33;;;33.50;23.31
76726;BME280;65651;53.154;17.916;2023-07-13T10:16:31;100704.70;;;32.68;23.65
76726;BME280;65651;53.154;17.916;2023-07-13T10:19:17;100704.56;;;32.31;24.00
76726;BME280;65651;53.154;17.916;2023-07-13T10:24:40;100701.52;;;31.16;24.97
76726;BME280;65651;53.154;17.916;2023-07-13T10:27:18;100698.68;;;31.14;25.56
76726;BME280;65651;53.154;17.916;2023-07-13T10:30:12;100698.63;;;31.23;25.23
76726;BME280;65651;53.154;17.916;2023-07-13T10:32:41;100701.83;;;31.20;25.29
76726;BME280;65651;53.154;17.916;2023-07-13T10:35:13;100697.77;;;31.33;25.23
76726;BME280;65651;53.154;17.916;2023-07-13T10:37:52;100698.79;;;31.28;25.60
76726;BME280;65651;53.154;17.916;2023-07-13T10:40:45;100699.95;;;31.12;25.65
76726;BME280;65651;53.154;17.916;2023-07-13T10:43:27;100701.48;;;30.92;25.69
76726;BME280;65651;53.154;17.916;2023-07-13T10:45:55;100698.52;;;31.01;25.69
76726;BME280;65651;53.154;17.916;2023-07-13T10:48:23;100698.64;;;30.99;25.72
76726;BME280;65651;53.154;17.916;2023-07-13T10:50:53;100701.54;;;30.72;25.88
76726;BME280;65651;53.154;17.916;2023-07-13T10:53:36;100706.92;;;30.40;26.13
76726;BME280;65651;53.154;17.916;2023-07-13T10:56:30;100702.14;;;30.13;26.85
76726;BME280;65651;53.154;17.916;2023-07-13T11:02:27;100695.10;;;29.91;27.14
76726;BME280;65651;53.154;17.916;2023-07-13T11:04:31;100694.41;;;29.69;27.72
76726;BME280;65651;53.154;17.916;2023-07-13T11:07:24;100695.79;;;29.49;27.95
76726;BME280;65651;53.154;17.916;2023-07-13T11:10:03;100694.73;;;29.19;28.95
76726;BME280;65651;53.154;17.916;2023-07-13T11:12:52;100702.31;;;29.02;29.14
76726;BME280;65651;53.154;17.916;2023-07-13T11:15:44;100706.80;;;28.96;29.68
76726;BME280;65651;53.154;17.916;2023-07-13T11:18:23;100709.16;;;28.93;29.43
76726;BME280;65651;53.154;17.916;2023-07-13T11:20:52;100708.42;;;28.80;29.19
76726;BME280;65651;53.154;17.916;2023-07-13T11:23:43;100707.71;;;28.74;29.11
76726;BME280;65651;53.154;17.916;2023-07-13T11:29:36;100699.00;;;28.79;29.58
76726;BME280;65651;53.154;17.916;2023-07-13T11:32:40;100707.06;;;28.75;30.18
76726;BME280;65651;53.154;17.916;2023-07-13T11:35:14;100707.02;;;28.65;30.72
76726;BME280;65651;53.154;17.916;2023-07-13T11:37:47;100715.70;;;28.45;31.01
76726;BME280;65651;53.154;17.916;2023-07-13T11:40:15;100714.15;;;28.26;31.21
76726;BME280;65651;53.154;17.916;2023-07-13T11:42:43;100713.02;;;28.14;31.62
76726;BME280;65651;53.154;17.916;2023-07-13T11:45:22;100706.92;;;28.13;31.85
76726;BME280;65651;53.154;17.916;2023-07-13T11:47:54;100707.29;;;28.17;32.36
76726;BME280;65651;53.154;17.916;2023-07-13T11:50:27;100702.67;;;28.33;32.33
76726;BME280;65651;53.154;17.916;2023-07-13T11:52:55;100700.73;;;28.50;32.01
76726;BME280;65651;53.154;17.916;2023-07-13T11:55:23;100700.77;;;28.53;31.82
76726;BME280;65651;53.154;17.916;2023-07-13T11:57:57;100706.22;;;28.38;31.85
76726;BME280;65651;53.154;17.916;2023-07-13T12:00:29;100707.33;;;28.38;32.25
76726;BME280;65651;53.154;17.916;2023-07-13T12:03:00;100705.34;;;28.40;32.14
76726;BME280;65651;53.154;17.916;2023-07-13T12:05:29;100705.36;;;28.46;32.00
76726;BME280;65651;53.154;17.916;2023-07-13T12:07:58;100698.90;;;28.68;31.56
76726;BME280;65651;53.154;17.916;2023-07-13T12:10:30;100704.30;;;28.83;31.22
76726;BME280;65651;53.154;17.916;2023-07-13T12:13:04;100702.61;;;28.86;30.99
76726;BME280;65651;53.154;17.916;2023-07-13T12:15:40;100696.76;;;28.76;30.72
76726;BME280;65651;53.154;17.916;2023-07-13T12:18:17;100695.48;;;28.77;30.83
76726;BME280;65651;53.154;17.916;2023-07-13T12:20:46;100703.88;;;28.90;30.98
76726;BME280;65651;53.154;17.916;2023-07-13T12:23:28;100705.77;;;28.86;30.69
76726;BME280;65651;53.154;17.916;2023-07-13T12:25:57;100702.52;;;28.64;31.00
76726;BME280;65651;53.154;17.916;2023-07-13T12:28:44;100701.09;;;28.59;31.03
76726;BME280;65651;53.154;17.916;2023-07-13T12:31:35;100701.55;;;28.54;30.99
76726;BME280;65651;53.154;17.916;2023-07-13T12:36:36;100696.54;;;28.64;31.35
76726;BME280;65651;53.154;17.916;2023-07-13T12:39:13;100696.29;;;28.67;31.31
76726;BME280;65651;53.154;17.916;2023-07-13T12:41:42;100695.44;;;28.71;31.22
76726;BME280;65651;53.154;17.916;2023-07-13T12:44:16;100688.88;;;28.56;31.27
76726;BME280;65651;53.154;17.916;2023-07-13T12:46:59;100693.22;;;28.30;31.79
76726;BME280;65651;53.154;17.916;2023-07-13T12:49:33;100691.79;;;27.97;32.04
76726;BME280;65651;53.154;17.916;2023-07-13T12:52:13;100698.64;;;27.70;32.46
76726;BME280;65651;53.154;17.916;2023-07-13T12:54:51;100693.71;;;27.50;32.49
76726;BME280;65651;53.154;17.916;2023-07-13T12:57:19;100693.55;;;27.46;32.90
76726;BME280;65651;53.154;17.916;2023-07-13T12:59:54;100688.08;;;27.47;32.85
76726;BME280;65651;53.154;17.916;2023-07-13T13:02:34;100692.23;;;27.39;32.60
76726;BME280;65651;53.154;17.916;2023-07-13T13:05:03;100693.86;;;27.37;32.41
76726;BME280;65651;53.154;17.916;2023-07-13T13:07:31;100690.52;;;27.30;32.43
76726;BME280;65651;53.154;17.916;2023-07-13T13:09:59;100687.63;;;27.14;32.55
76726;BME280;65651;53.154;17.916;2023-07-13T13:12:27;100688.91;;;27.05;32.73
76726;BME280;65651;53.154;17.916;2023-07-13T13:14:55;100688.21;;;27.10;32.94
76726;BME280;65651;53.154;17.916;2023-07-13T13:17:29;100683.09;;;27.14;33.03
76726;BME280;65651;53.154;17.916;2023-07-13T13:19:58;100686.55;;;27.17;32.84
76726;BME280;65651;53.154;17.916;2023-07-13T13:22:25;100688.84;;;27.29;33.24
76726;BME280;65651;53.154;17.916;2023-07-13T13:24:53;100687.67;;;27.45;32.44
76726;BME280;65651;53.154;17.916;2023-07-13T13:27:22;100683.48;;;27.58;31.80
76726;BME280;65651;53.154;17.916;2023-07-13T13:29:50;100682.64;;;27.70;31.62
76726;BME280;65651;53.154;17.916;2023-07-13T13:32:21;100682.76;;;27.88;30.82
76726;BME280;65651;53.154;17.916;2023-07-13T13:34:48;100682.98;;;27.97;29.80